Time;durP1;ratioP1;P1;durP2;ratioP2;P2;SDS_P1;SDS_P2;PMS_P1;PMS_P2;Temp;Humidity;BMP_temperature;BMP_pressure;BME280_temperature;BME280_humidity;BME280_pressure;Samples;Min_cycle;Max_cycle;Signal;HPM_P1;HPM_P2
2022/09/05 00:02:28;;;;;;;7.22;4.22;;;;;;;;;;4406493;32;20260;-92
2022/09/05 00:05:17;;;;;;;5.20;3.83;;;;;;;;;;4405666;32;20257;-92
2022/09/05 00:07:54;;;;;;;5.60;4.35;;;;;;;;;;4404099;32;20242;-91
2022/09/05 00:10:31;;;;;;;7.80;4.05;;;;;;;;;;4406704;32;20290;-93
2022/09/05 00:13:01;;;;;;;7.00;4.03;;;;;;;;;;4406645;32;20253;-89
2022/09/05 00:15:39;;;;;;;5.00;3.97;;;;;;;;;;4402152;32;20214;-87
2022/09/05 00:18:31;;;;;;;12.15;5.03;;;;;;;;;;4393198;32;20228;-96
2022/09/05 00:21:12;;;;;;;12.82;4.37;;;;;;;;;;4392972;32;20657;-95
2022/09/05 00:23:51;;;;;;;10.57;4.15;;;;;;;;;;4398206;32;20269;-91
2022/09/05 00:26:31;;;;;;;10.57;4.12;;;;;;;;;;4398779;32;20590;-96
2022/09/05 00:29:10;;;;;;;10.88;4.45;;;;;;;;;;4400912;32;20228;-95
2022/09/05 00:31:50;;;;;;;5.87;4.85;;;;;;;;;;4403562;32;20248;-89
2022/09/05 00:34:33;;;;;;;5.50;4.75;;;;;;;;;;4400643;32;20503;-95
2022/09/05 00:37:01;;;;;;;5.80;4.55;;;;;;;;;;4377681;32;20575;-95
2022/09/05 00:39:34;;;;;;;7.90;5.30;;;;;;;;;;4378485;32;20642;-95
2022/09/05 00:42:06;;;;;;;5.85;5.25;;;;;;;;;;4379196;32;20293;-95
2022/09/05 00:44:38;;;;;;;7.43;4.47;;;;;;;;;;4378860;32;20195;-95
2022/09/05 00:47:14;;;;;;;8.40;4.47;;;;;;;;;;4377401;32;20591;-95
2022/09/05 00:49:49;;;;;;;10.80;4.80;;;;;;;;;;4378651;32;20249;-95
2022/09/05 00:52:22;;;;;;;13.65;4.85;;;;;;;;;;4378813;32;20567;-96
2022/09/05 00:55:18;;;;;;;7.28;4.47;;;;;;;;;;4378779;32;20587;-95
2022/09/05 00:58:09;;;;;;;5.28;3.95;;;;;;;;;;4382122;32;20567;-93
2022/09/05 01:00:49;;;;;;;5.25;4.75;;;;;;;;;;4369090;32;20245;-90
2022/09/05 01:03:46;;;;;;;6.93;4.47;;;;;;;;;;4379091;32;20288;-90
2022/09/05 01:06:21;;;;;;;5.93;4.22;;;;;;;;;;4378829;32;20564;-89
2022/09/05 01:09:25;;;;;;;12.40;9.82;;;;;;;;;;4378814;32;20536;-90
2022/09/05 01:12:15;;;;;;;12.73;11.35;;;;;;;;;;4355114;32;20784;-93
2022/09/05 01:15:00;;;;;;;8.45;7.05;;;;;;;;;;4378255;32;20304;-91
2022/09/05 01:17:42;;;;;;;6.12;4.87;;;;;;;;;;4378249;32;20306;-92
2022/09/05 01:20:27;;;;;;;5.10;4.57;;;;;;;;;;4376158;32;20544;-85
2022/09/05 01:23:18;;;;;;;5.05;4.50;;;;;;;;;;4375975;32;20218;-85
2022/09/05 01:26:00;;;;;;;6.97;4.65;;;;;;;;;;4377999;32;20202;-92
2022/09/05 01:28:35;;;;;;;6.82;4.97;;;;;;;;;;4377276;32;20280;-92
2022/09/05 01:31:12;;;;;;;5.37;4.87;;;;;;;;;;4377038;32;20667;-93
2022/09/05 01:33:47;;;;;;;7.32;4.68;;;;;;;;;;4377034;32;20575;-93
2022/09/05 01:36:34;;;;;;;10.57;6.35;;;;;;;;;;4377045;32;20261;-90
2022/09/05 01:39:08;;;;;;;6.45;5.68;;;;;;;;;;4376260;32;20245;-94
2022/09/05 01:41:45;;;;;;;10.43;5.85;;;;;;;;;;4377610;32;20253;-94
2022/09/05 01:44:27;;;;;;;9.68;6.00;;;;;;;;;;4378329;32;20485;-91
2022/09/05 01:47:20;;;;;;;13.02;6.05;;;;;;;;;;4377443;32;20614;-92
2022/09/05 01:49:58;;;;;;;9.30;6.35;;;;;;;;;;4378230;32;20227;-93
2022/09/05 01:52:32;;;;;;;12.32;5.87;;;;;;;;;;4377863;32;20582;-93
2022/09/05 01:55:18;;;;;;;10.48;5.47;;;;;;;;;;4378137;32;20206;-94
2022/09/05 01:57:54;;;;;;;8.55;5.78;;;;;;;;;;4376627;32;20268;-91
2022/09/05 02:00:30;;;;;;;7.62;6.78;;;;;;;;;;4377334;32;20229;-90
2022/09/05 02:03:13;;;;;;;7.10;6.07;;;;;;;;;;4378126;32;20260;-94
2022/09/05 02:06:02;;;;;;;11.60;7.07;;;;;;;;;;4377526;32;20598;-93
2022/09/05 02:08:51;;;;;;;9.32;5.95;;;;;;;;;;4378133;32;20508;-91
2022/09/05 02:11:19;;;;;;;16.30;6.75;;;;;;;;;;4377559;32;20666;-93
2022/09/05 02:13:58;;;;;;;10.25;6.65;;;;;;;;;;4377489;32;20664;-93
2022/09/05 02:16:35;;;;;;;8.65;7.75;;;;;;;;;;4377412;32;20647;-90
2022/09/05 02:19:13;;;;;;;12.43;6.93;;;;;;;;;;4377385;32;20687;-94
2022/09/05 02:21:51;;;;;;;11.07;6.57;;;;;;;;;;4377674;32;20685;-90
2022/09/05 02:24:25;;;;;;;7.72;6.35;;;;;;;;;;4379065;32;20558;-88
2022/09/05 02:27:10;;;;;;;8.65;6.57;;;;;;;;;;4379158;32;20693;-91
2022/09/05 02:29:45;;;;;;;6.55;5.68;;;;;;;;;;4377460;32;20628;-89
2022/09/05 02:32:21;;;;;;;7.68;5.62;;;;;;;;;;4383762;32;20703;-93
2022/09/05 02:34:57;;;;;;;7.47;6.30;;;;;;;;;;4383838;32;20585;-90
2022/09/05 02:37:31;;;;;;;7.47;6.00;;;;;;;;;;4382579;32;20234;-91
2022/09/05 02:40:06;;;;;;;11.80;6.78;;;;;;;;;;4382106;32;20205;-92
2022/09/05 02:42:39;;;;;;;8.07;6.72;;;;;;;;;;4382113;32;20308;-93
2022/09/05 02:45:17;;;;;;;14.25;6.53;;;;;;;;;;4381407;32;20229;-91
2022/09/05 02:47:54;;;;;;;8.00;6.68;;;;;;;;;;4381927;32;20248;-94
2022/09/05 02:50:33;;;;;;;11.80;7.70;;;;;;;;;;4381937;32;20256;-93
2022/09/05 02:53:02;;;;;;;8.73;7.32;;;;;;;;;;4380611;32;20244;-90
2022/09/05 02:55:39;;;;;;;12.48;8.02;;;;;;;;;;4382227;32;20215;-92
2022/09/05 02:58:27;;;;;;;10.57;7.62;;;;;;;;;;4379127;32;20218;-94
2022/09/05 03:01:05;;;;;;;11.57;8.32;;;;;;;;;;4378987;32;20210;-93
2022/09/05 03:03:40;;;;;;;8.13;6.87;;;;;;;;;;4378327;32;20501;-95
2022/09/05 03:06:18;;;;;;;10.35;7.75;;;;;;;;;;4376799;32;20622;-90
2022/09/05 03:09:18;;;;;;;7.97;7.28;;;;;;;;;;4378377;32;20626;-85
2022/09/05 03:12:27;;;;;;;10.10;7.40;;;;;;;;;;4378734;32;20656;-86
2022/09/05 03:15:31;;;;;;;14.77;9.85;;;;;;;;;;4381967;32;20558;-93
2022/09/05 03:18:29;;;;;;;14.65;10.25;;;;;;;;;;4380364;32;20518;-90
2022/09/05 03:21:28;;;;;;;10.93;9.73;;;;;;;;;;4379756;32;20344;-94
2022/09/05 03:24:17;;;;;;;9.57;8.60;;;;;;;;;;4380582;32;20497;-95
2022/09/05 03:27:18;;;;;;;16.55;9.35;;;;;;;;;;4379122;32;20609;-94
2022/09/05 03:30:19;;;;;;;10.65;9.55;;;;;;;;;;4380194;32;20486;-93
2022/09/05 03:33:13;;;;;;;15.00;9.27;;;;;;;;;;4334992;33;20239;-95
2022/09/05 03:36:16;;;;;;;13.55;9.55;;;;;;;;;;4378503;32;20677;-94
2022/09/05 03:39:20;;;;;;;11.68;10.55;;;;;;;;;;4379587;32;20334;-93
2022/09/05 03:42:03;;;;;;;17.75;10.68;;;;;;;;;;4383748;32;20240;-94
2022/09/05 03:44:49;;;;;;;13.98;11.40;;;;;;;;;;4380314;32;20210;-94
2022/09/05 03:47:35;;;;;;;13.00;11.15;;;;;;;;;;4385930;32;20254;-94
2022/09/05 03:50:24;;;;;;;14.60;11.90;;;;;;;;;;4379401;32;20618;-94
2022/09/05 03:53:10;;;;;;;12.52;11.05;;;;;;;;;;4380314;32;20670;-91
2022/09/05 03:56:01;;;;;;;12.82;10.07;;;;;;;;;;4380116;32;20541;-92
2022/09/05 03:58:51;;;;;;;19.52;12.00;;;;;;;;;;4384363;32;20218;-90
2022/09/05 04:01:23;;;;;;;15.23;11.12;;;;;;;;;;4384424;32;20625;-91
2022/09/05 04:03:55;;;;;;;11.38;10.43;;;;;;;;;;4382888;32;20211;-92
2022/09/05 04:06:31;;;;;;;15.05;10.38;;;;;;;;;;4382090;32;20576;-95
2022/09/05 04:09:09;;;;;;;16.33;11.63;;;;;;;;;;4377584;32;20220;-94
2022/09/05 04:11:41;;;;;;;20.73;13.07;;;;;;;;;;4389762;32;20520;-88
2022/09/05 04:14:14;;;;;;;17.05;12.02;;;;;;;;;;4386652;32;20556;-93
2022/09/05 04:16:50;;;;;;;15.95;12.23;;;;;;;;;;4377191;32;20235;-95
2022/09/05 04:19:27;;;;;;;12.50;11.30;;;;;;;;;;4381086;32;20376;-90
2022/09/05 04:22:03;;;;;;;22.58;12.07;;;;;;;;;;4387750;32;20338;-90
2022/09/05 04:30:01;;;;;;;14.38;12.65;;;;;;;;;;2044385;27;20300;-86
2022/09/05 04:32:39;;;;;;;13.20;11.43;;;;;;;;;;4433554;32;20216;-87
2022/09/05 04:35:22;;;;;;;13.62;12.30;;;;;;;;;;4434686;32;20264;-89
2022/09/05 04:37:58;;;;;;;11.80;10.77;;;;;;;;;;4424379;32;20606;-88
2022/09/05 04:40:37;;;;;;;16.35;11.20;;;;;;;;;;4423888;32;20646;-92
2022/09/05 04:43:07;;;;;;;14.00;12.45;;;;;;;;;;4424714;32;20189;-91
2022/09/05 04:45:41;;;;;;;21.37;14.82;;;;;;;;;;4427286;32;20402;-96
2022/09/05 04:48:31;;;;;;;18.23;12.82;;;;;;;;;;4428412;32;20257;-93
2022/09/05 04:51:08;;;;;;;18.25;13.20;;;;;;;;;;4425391;32;20558;-94
2022/09/05 04:54:05;;;;;;;15.70;12.52;;;;;;;;;;4425796;32;20693;-93
2022/09/05 04:56:38;;;;;;;12.80;11.65;;;;;;;;;;4424905;32;20667;-91
2022/09/05 04:59:11;;;;;;;14.25;12.20;;;;;;;;;;4423305;32;20609;-94
2022/09/05 05:01:47;;;;;;;17.17;11.52;;;;;;;;;;4421531;32;20304;-93
2022/09/05 05:04:18;;;;;;;12.90;11.52;;;;;;;;;;4421532;32;20846;-94
2022/09/05 05:06:54;;;;;;;13.15;11.93;;;;;;;;;;4421184;32;20352;-96
2022/09/05 05:09:25;;;;;;;15.13;11.98;;;;;;;;;;4420652;32;20271;-83
2022/09/05 05:11:57;;;;;;;18.75;13.18;;;;;;;;;;4420589;32;20601;-89
2022/09/05 05:14:31;;;;;;;13.05;11.75;;;;;;;;;;4420724;32;20311;-87
2022/09/05 05:17:07;;;;;;;13.20;11.85;;;;;;;;;;4420612;32;20580;-89
2022/09/05 05:19:41;;;;;;;12.63;11.32;;;;;;;;;;4421225;32;20566;-83
2022/09/05 05:22:15;;;;;;;14.23;12.18;;;;;;;;;;4420528;32;20543;-89
2022/09/05 05:24:44;;;;;;;12.13;10.98;;;;;;;;;;4420641;32;20658;-86
2022/09/05 05:27:19;;;;;;;13.68;12.37;;;;;;;;;;4420683;32;20775;-87
2022/09/05 05:29:51;;;;;;;14.30;11.20;;;;;;;;;;4421313;32;20570;-91
2022/09/05 05:32:24;;;;;;;13.43;12.20;;;;;;;;;;4420867;32;20651;-89
2022/09/05 05:34:55;;;;;;;14.32;9.27;;;;;;;;;;4420521;32;20560;-91
2022/09/05 05:37:30;;;;;;;11.52;10.15;;;;;;;;;;4420094;32;20535;-89
2022/09/05 05:40:07;;;;;;;10.38;9.13;;;;;;;;;;4420401;32;20560;-88
2022/09/05 05:42:37;;;;;;;18.27;10.57;;;;;;;;;;4420535;32;20578;-87
2022/09/05 05:45:07;;;;;;;14.68;11.43;;;;;;;;;;4419955;32;20633;-84
2022/09/05 05:47:42;;;;;;;12.82;10.10;;;;;;;;;;4420022;32;20612;-87
2022/09/05 05:50:22;;;;;;;15.80;11.12;;;;;;;;;;4420224;32;20531;-92
2022/09/05 05:53:25;;;;;;;13.32;11.85;;;;;;;;;;4420480;32;20275;-93
2022/09/05 05:56:12;;;;;;;48.03;20.65;;;;;;;;;;4420965;32;20532;-91
2022/09/05 05:58:53;;;;;;;103.18;32.15;;;;;;;;;;4420847;32;20558;-90
2022/09/05 06:01:50;;;;;;;19.10;12.60;;;;;;;;;;4422535;32;20648;-89
2022/09/05 06:04:51;;;;;;;15.55;12.13;;;;;;;;;;4420364;32;20330;-91
2022/09/05 06:07:26;;;;;;;15.65;11.75;;;;;;;;;;4422820;32;20360;-89
2022/09/05 06:10:25;;;;;;;18.37;12.30;;;;;;;;;;4421834;32;20552;-82
2022/09/05 06:13:44;;;;;;;11.00;9.35;;;;;;;;;;4420987;32;20700;-83
2022/09/05 06:16:59;;;;;;;21.50;12.50;;;;;;;;;;4359139;32;20336;-81
2022/09/05 06:20:06;;;;;;;30.25;12.02;;;;;;;;;;4358164;32;20245;-81
2022/09/05 06:23:06;;;;;;;16.87;12.45;;;;;;;;;;4402307;32;20649;-84
2022/09/05 06:26:02;;;;;;;10.52;8.18;;;;;;;;;;4394464;32;20665;-81
2022/09/05 06:28:42;;;;;;;8.77;7.75;;;;;;;;;;4414797;32;20217;-82
2022/09/05 06:31:26;;;;;;;15.88;8.70;;;;;;;;;;4419821;32;20304;-81
2022/09/05 06:34:08;;;;;;;15.00;9.18;;;;;;;;;;4420114;32;20574;-83
2022/09/05 06:36:50;;;;;;;8.15;6.57;;;;;;;;;;4420422;32;20667;-85
2022/09/05 06:39:29;;;;;;;12.37;7.82;;;;;;;;;;4422200;32;20582;-83
2022/09/05 06:42:15;;;;;;;9.07;7.40;;;;;;;;;;4422024;32;20303;-83
2022/09/05 06:45:07;;;;;;;13.65;8.70;;;;;;;;;;4422880;32;20566;-81
2022/09/05 06:47:38;;;;;;;10.73;7.10;;;;;;;;;;4422407;32;20601;-82
2022/09/05 06:50:12;;;;;;;8.88;5.93;;;;;;;;;;4423198;32;20653;-81
2022/09/05 06:53:30;;;;;;;6.70;5.97;;;;;;;;;;4423891;32;20602;-84
2022/09/05 06:56:13;;;;;;;8.55;6.65;;;;;;;;;;4422705;32;20723;-83
2022/09/05 06:59:23;;;;;;;12.82;7.50;;;;;;;;;;4423449;32;20209;-82
2022/09/05 07:01:56;;;;;;;10.77;7.28;;;;;;;;;;4424695;32;20658;-82
2022/09/05 07:04:34;;;;;;;10.68;6.45;;;;;;;;;;4423058;32;20492;-83
2022/09/05 07:07:07;;;;;;;7.72;6.82;;;;;;;;;;4423691;32;20313;-82
2022/09/05 07:09:52;;;;;;;6.80;5.85;;;;;;;;;;4422752;32;20197;-81
2022/09/05 07:12:26;;;;;;;14.32;6.68;;;;;;;;;;4423601;32;20565;-85
2022/09/05 07:15:04;;;;;;;9.50;6.15;;;;;;;;;;4422933;32;20697;-82
2022/09/05 07:17:41;;;;;;;6.18;5.20;;;;;;;;;;4419349;32;20328;-83
2022/09/05 07:20:20;;;;;;;8.90;6.35;;;;;;;;;;4422150;32;20534;-84
2022/09/05 07:22:57;;;;;;;6.70;6.07;;;;;;;;;;4422200;32;20586;-89
2022/09/05 07:25:33;;;;;;;6.40;5.80;;;;;;;;;;4424669;32;20220;-90
2022/09/05 07:28:08;;;;;;;7.37;6.25;;;;;;;;;;4424201;32;20594;-81
2022/09/05 07:30:40;;;;;;;7.05;6.45;;;;;;;;;;4424388;32;20262;-85
2022/09/05 07:33:09;;;;;;;6.70;5.50;;;;;;;;;;4422801;32;20512;-83
2022/09/05 07:35:39;;;;;;;9.18;5.93;;;;;;;;;;4421979;32;20578;-82
2022/09/05 07:38:14;;;;;;;6.53;5.93;;;;;;;;;;4422604;32;20595;-82
2022/09/05 07:40:51;;;;;;;7.32;5.93;;;;;;;;;;4423545;32;20231;-81
2022/09/05 07:43:22;;;;;;;6.82;5.20;;;;;;;;;;4422218;32;20534;-81
2022/09/05 07:46:03;;;;;;;13.07;5.07;;;;;;;;;;4423529;32;20546;-82
2022/09/05 07:48:35;;;;;;;8.13;5.18;;;;;;;;;;4423028;32;20557;-81
2022/09/05 07:51:09;;;;;;;9.75;5.93;;;;;;;;;;4423389;32;20246;-85
2022/09/05 07:53:40;;;;;;;5.90;5.40;;;;;;;;;;4423406;32;20621;-85
2022/09/05 07:56:10;;;;;;;7.45;5.50;;;;;;;;;;4422636;32;20270;-83
2022/09/05 07:58:42;;;;;;;10.90;4.95;;;;;;;;;;4422707;32;20241;-81
2022/09/05 08:01:14;;;;;;;7.97;5.03;;;;;;;;;;4423672;32;20503;-85
2022/09/05 08:03:43;;;;;;;8.90;4.65;;;;;;;;;;4422492;32;20235;-79
2022/09/05 08:06:15;;;;;;;7.35;5.25;;;;;;;;;;4421963;32;20632;-79
2022/09/05 08:08:52;;;;;;;5.75;4.35;;;;;;;;;;4422893;32;20613;-80
2022/09/05 08:11:25;;;;;;;7.03;4.22;;;;;;;;;;4423005;32;20650;-83
2022/09/05 08:13:58;;;;;;;5.32;4.82;;;;;;;;;;4424181;32;20209;-83
2022/09/05 08:16:26;;;;;;;5.30;4.80;;;;;;;;;;4422805;32;20559;-82
2022/09/05 08:19:02;;;;;;;6.32;5.55;;;;;;;;;;4422144;32;20654;-82
2022/09/05 08:21:41;;;;;;;9.77;5.05;;;;;;;;;;4421952;32;20592;-82
2022/09/05 08:24:12;;;;;;;8.27;4.72;;;;;;;;;;4421598;32;20236;-83
2022/09/05 08:26:44;;;;;;;5.35;4.78;;;;;;;;;;4422593;32;20598;-82
2022/09/05 08:29:24;;;;;;;6.00;4.03;;;;;;;;;;4421406;32;20570;-83
2022/09/05 08:31:56;;;;;;;5.00;4.18;;;;;;;;;;4421397;32;20621;-83
2022/09/05 08:34:33;;;;;;;4.30;3.90;;;;;;;;;;4420976;32;20644;-83
2022/09/05 08:37:01;;;;;;;9.13;4.30;;;;;;;;;;4422210;32;20515;-86
2022/09/05 08:39:33;;;;;;;6.22;3.90;;;;;;;;;;4422378;32;20551;-84
2022/09/05 08:42:15;;;;;;;9.43;3.87;;;;;;;;;;4421763;32;20664;-86
2022/09/05 08:44:58;;;;;;;9.52;4.78;;;;;;;;;;4423416;32;20638;-87
2022/09/05 08:47:33;;;;;;;4.75;4.28;;;;;;;;;;4423021;32;20648;-83
2022/09/05 08:50:23;;;;;;;5.22;4.72;;;;;;;;;;4421803;32;20557;-80
2022/09/05 08:53:07;;;;;;;4.35;3.58;;;;;;;;;;4421674;32;20679;-81
2022/09/05 08:55:43;;;;;;;3.80;3.45;;;;;;;;;;4423100;32;20610;-80
2022/09/05 08:58:34;;;;;;;6.15;4.07;;;;;;;;;;4423057;32;20546;-80
2022/09/05 09:01:15;;;;;;;6.45;4.43;;;;;;;;;;4435303;32;20162;-77
2022/09/05 09:04:02;;;;;;;4.40;3.58;;;;;;;;;;4433454;32;20671;-83
2022/09/05 09:06:53;;;;;;;7.47;3.60;;;;;;;;;;4429868;32;20205;-81
2022/09/05 09:09:34;;;;;;;6.18;4.10;;;;;;;;;;4423712;32;20247;-83
2022/09/05 09:12:17;;;;;;;6.07;3.70;;;;;;;;;;4422422;32;20240;-82
2022/09/05 09:15:11;;;;;;;5.55;3.25;;;;;;;;;;4424533;32;20275;-87
2022/09/05 09:17:44;;;;;;;4.72;2.95;;;;;;;;;;4423458;32;20213;-90
2022/09/05 09:20:36;;;;;;;4.07;3.30;;;;;;;;;;4423239;32;20578;-89
2022/09/05 09:23:08;;;;;;;3.75;3.35;;;;;;;;;;4424280;32;20197;-90
2022/09/05 09:25:41;;;;;;;5.50;2.22;;;;;;;;;;4423535;32;20280;-91
2022/09/05 09:28:39;;;;;;;3.33;2.78;;;;;;;;;;4423333;32;20606;-92
2022/09/05 09:31:14;;;;;;;3.50;2.37;;;;;;;;;;4422479;32;20716;-91
2022/09/05 09:33:47;;;;;;;5.47;2.72;;;;;;;;;;4422303;32;20536;-87
2022/09/05 09:36:35;;;;;;;3.42;3.12;;;;;;;;;;4422145;32;20642;-87
2022/09/05 09:39:15;;;;;;;6.72;2.80;;;;;;;;;;4423042;32;20243;-89
2022/09/05 09:41:58;;;;;;;4.10;2.62;;;;;;;;;;4422129;32;20562;-88
2022/09/05 09:44:56;;;;;;;3.45;3.00;;;;;;;;;;4421497;32;20412;-88
2022/09/05 09:47:46;;;;;;;4.82;2.70;;;;;;;;;;4416448;32;20712;-85
2022/09/05 09:50:43;;;;;;;2.47;2.28;;;;;;;;;;4421665;32;20586;-88
2022/09/05 09:53:42;;;;;;;5.90;3.05;;;;;;;;;;4422799;32;20213;-87
2022/09/05 09:56:35;;;;;;;5.85;3.00;;;;;;;;;;4422645;32;20217;-88
2022/09/05 09:59:50;;;;;;;3.62;3.17;;;;;;;;;;4422708;32;20244;-89
2022/09/05 10:02:38;;;;;;;3.05;2.60;;;;;;;;;;4418132;32;20555;-88
2022/09/05 10:05:30;;;;;;;3.28;2.97;;;;;;;;;;4422796;32;20288;-83
2022/09/05 10:08:18;;;;;;;3.58;2.62;;;;;;;;;;4421503;32;20657;-85
2022/09/05 10:11:31;;;;;;;3.78;2.97;;;;;;;;;;4421959;32;20300;-88
2022/09/05 10:14:23;;;;;;;3.42;2.67;;;;;;;;;;4422506;32;20531;-89
2022/09/05 10:17:28;;;;;;;3.12;2.70;;;;;;;;;;4423509;32;20260;-87
2022/09/05 10:20:17;;;;;;;5.93;2.70;;;;;;;;;;4371316;32;20644;-89
2022/09/05 10:23:09;;;;;;;3.53;3.00;;;;;;;;;;4420514;32;20260;-88
2022/09/05 10:26:03;;;;;;;5.55;3.10;;;;;;;;;;4420813;32;20364;-88
2022/09/05 10:28:39;;;;;;;4.10;2.42;;;;;;;;;;4419301;32;20610;-83
2022/09/05 10:31:16;;;;;;;5.68;2.95;;;;;;;;;;4422193;32;20245;-88
2022/09/05 10:33:52;;;;;;;2.62;2.42;;;;;;;;;;4423437;32;20578;-88
2022/09/05 10:36:27;;;;;;;2.55;2.35;;;;;;;;;;4421304;32;20256;-86
2022/09/05 10:39:06;;;;;;;5.50;2.95;;;;;;;;;;4421317;32;20243;-87
2022/09/05 10:41:49;;;;;;;6.20;3.12;;;;;;;;;;4420980;32;20550;-89
2022/09/05 10:44:28;;;;;;;3.37;2.60;;;;;;;;;;4420908;32;20562;-89
2022/09/05 10:47:06;;;;;;;3.33;2.97;;;;;;;;;;4420963;32;20616;-88
2022/09/05 10:49:42;;;;;;;2.92;2.60;;;;;;;;;;4420970;32;20684;-88
2022/09/05 10:52:14;;;;;;;3.17;2.70;;;;;;;;;;4420709;32;20672;-88
2022/09/05 10:55:06;;;;;;;3.12;2.72;;;;;;;;;;4420086;32;20512;-89
2022/09/05 10:57:40;;;;;;;2.87;2.58;;;;;;;;;;4420227;32;20313;-90
2022/09/05 11:00:32;;;;;;;3.55;2.50;;;;;;;;;;4420350;32;20758;-89
2022/09/05 11:03:01;;;;;;;2.95;2.65;;;;;;;;;;4420787;32;20606;-90
2022/09/05 11:05:31;;;;;;;5.43;3.12;;;;;;;;;;4421631;32;20303;-88
2022/09/05 11:08:08;;;;;;;3.70;2.70;;;;;;;;;;4424049;32;20286;-89
2022/09/05 11:10:38;;;;;;;3.97;2.90;;;;;;;;;;4423905;32;20551;-89
2022/09/05 11:13:13;;;;;;;2.47;2.28;;;;;;;;;;4424297;32;20614;-94
2022/09/05 11:15:56;;;;;;;3.05;2.25;;;;;;;;;;4423142;32;20641;-95
2022/09/05 11:18:42;;;;;;;7.25;3.00;;;;;;;;;;4423725;32;20368;-92
2022/09/05 11:21:16;;;;;;;3.33;2.85;;;;;;;;;;4423351;32;20545;-96
2022/09/05 11:23:52;;;;;;;6.15;2.97;;;;;;;;;;4423148;32;20610;-95
2022/09/05 11:26:31;;;;;;;2.87;2.55;;;;;;;;;;4423306;32;20201;-96
2022/09/05 11:29:05;;;;;;;5.40;2.58;;;;;;;;;;4422084;32;20596;-88
2022/09/05 11:31:45;;;;;;;4.07;2.95;;;;;;;;;;4424257;32;20327;-84
2022/09/05 11:34:53;;;;;;;3.15;2.78;;;;;;;;;;4423626;32;20292;-90
2022/09/05 11:37:34;;;;;;;5.70;2.85;;;;;;;;;;4424570;32;20582;-88
2022/09/05 11:40:38;;;;;;;3.00;2.20;;;;;;;;;;4424403;32;20543;-89
2022/09/05 11:43:40;;;;;;;2.72;2.00;;;;;;;;;;4424991;32;20647;-88
2022/09/05 11:46:25;;;;;;;4.18;2.20;;;;;;;;;;4423078;32;20319;-89
2022/09/05 11:49:22;;;;;;;5.43;2.80;;;;;;;;;;4424760;32;20645;-88
2022/09/05 11:52:20;;;;;;;3.08;2.30;;;;;;;;;;4422638;32;20346;-89
2022/09/05 11:55:18;;;;;;;7.40;2.12;;;;;;;;;;4423426;32;20611;-88
2022/09/05 11:57:56;;;;;;;3.12;2.78;;;;;;;;;;4425015;32;20583;-89
2022/09/05 12:00:26;;;;;;;2.45;2.25;;;;;;;;;;4425515;32;20642;-87
2022/09/05 12:03:30;;;;;;;3.28;2.92;;;;;;;;;;4423452;32;20323;-88
2022/09/05 12:06:29;;;;;;;3.45;2.62;;;;;;;;;;4422680;32;20331;-90
2022/09/05 12:09:05;;;;;;;2.40;2.08;;;;;;;;;;4419777;32;20364;-90
2022/09/05 12:11:45;;;;;;;2.75;2.33;;;;;;;;;;4425161;32;20569;-90
2022/09/05 12:14:32;;;;;;;4.10;1.98;;;;;;;;;;4423350;32;20558;-90
2022/09/05 12:17:07;;;;;;;7.12;3.65;;;;;;;;;;4424285;32;20237;-85
2022/09/05 12:19:41;;;;;;;3.33;2.72;;;;;;;;;;4422872;32;20569;-89
2022/09/05 12:22:30;;;;;;;2.97;2.05;;;;;;;;;;4425117;32;20622;-89
2022/09/05 12:25:22;;;;;;;4.05;2.47;;;;;;;;;;4424388;32;20720;-83
2022/09/05 12:27:54;;;;;;;2.65;1.90;;;;;;;;;;4421285;32;20343;-89
2022/09/05 12:30:27;;;;;;;4.37;2.12;;;;;;;;;;4423848;32;20251;-86
2022/09/05 12:32:59;;;;;;;3.72;2.17;;;;;;;;;;4424122;32;20523;-89
2022/09/05 12:35:39;;;;;;;3.65;2.37;;;;;;;;;;4424269;32;20648;-88
2022/09/05 12:38:29;;;;;;;7.70;1.92;;;;;;;;;;4422848;32;20209;-88
2022/09/05 12:40:59;;;;;;;1.65;1.50;;;;;;;;;;4422672;32;20225;-89
2022/09/05 12:43:29;;;;;;;2.67;2.22;;;;;;;;;;4422594;32;20572;-90
2022/09/05 12:46:04;;;;;;;6.68;2.55;;;;;;;;;;4422624;32;20236;-88
2022/09/05 12:48:42;;;;;;;6.28;1.92;;;;;;;;;;4424342;32;20201;-87
2022/09/05 12:51:14;;;;;;;3.80;2.12;;;;;;;;;;4423625;32;20319;-89
2022/09/05 12:53:44;;;;;;;2.78;2.10;;;;;;;;;;4421781;32;20527;-89
2022/09/05 12:56:21;;;;;;;3.00;2.08;;;;;;;;;;4422841;32;20585;-88
2022/09/05 12:58:52;;;;;;;3.80;2.50;;;;;;;;;;4423571;32;20520;-89
2022/09/05 13:01:30;;;;;;;8.80;2.53;;;;;;;;;;4422983;32;20718;-85
2022/09/05 13:04:17;;;;;;;2.83;2.28;;;;;;;;;;4422416;32;20678;-85
2022/09/05 13:06:49;;;;;;;2.70;2.33;;;;;;;;;;4422532;32;20609;-89
2022/09/05 13:09:23;;;;;;;2.42;1.85;;;;;;;;;;4423591;32;20634;-87
2022/09/05 13:12:03;;;;;;;3.10;2.08;;;;;;;;;;4424224;32;20287;-88
2022/09/05 13:14:35;;;;;;;4.53;2.30;;;;;;;;;;4423534;32;20359;-89
2022/09/05 13:17:12;;;;;;;4.30;2.58;;;;;;;;;;4423132;32;20515;-89
2022/09/05 13:19:49;;;;;;;3.42;2.00;;;;;;;;;;4424266;32;20678;-88
2022/09/05 13:22:21;;;;;;;5.28;3.28;;;;;;;;;;4424831;32;20615;-89
2022/09/05 13:24:58;;;;;;;5.37;3.17;;;;;;;;;;4429023;32;20277;-83
2022/09/05 13:27:30;;;;;;;3.28;2.30;;;;;;;;;;4435085;32;20542;-82
2022/09/05 13:30:06;;;;;;;3.85;2.37;;;;;;;;;;4435368;32;20590;-83
2022/09/05 13:32:38;;;;;;;8.48;2.50;;;;;;;;;;4437108;32;20261;-87
2022/09/05 13:35:11;;;;;;;6.97;2.40;;;;;;;;;;4436271;32;20198;-89
2022/09/05 13:37:43;;;;;;;4.68;1.52;;;;;;;;;;4435381;32;20205;-83
2022/09/05 13:40:21;;;;;;;10.43;2.37;;;;;;;;;;4434224;32;20292;-89
2022/09/05 13:43:07;;;;;;;3.72;2.10;;;;;;;;;;4427799;32;20664;-85
2022/09/05 13:45:52;;;;;;;3.05;2.40;;;;;;;;;;4429824;32;20241;-87
2022/09/05 13:48:37;;;;;;;3.12;2.12;;;;;;;;;;4429894;32;20292;-89
2022/09/05 13:51:26;;;;;;;2.55;2.10;;;;;;;;;;4423814;32;20656;-86
2022/09/05 13:54:18;;;;;;;4.68;1.95;;;;;;;;;;4424522;32;20271;-84
2022/09/05 13:56:53;;;;;;;2.67;2.10;;;;;;;;;;4425588;32;20249;-89
2022/09/05 13:59:26;;;;;;;3.25;2.03;;;;;;;;;;4425259;32;20672;-91
2022/09/05 14:02:06;;;;;;;3.70;2.30;;;;;;;;;;4423766;32;20206;-86
2022/09/05 14:05:02;;;;;;;2.92;1.92;;;;;;;;;;4424138;32;20225;-96
2022/09/05 14:08:16;;;;;;;2.55;2.12;;;;;;;;;;4426417;32;20344;-95
2022/09/05 14:11:06;;;;;;;6.10;3.60;;;;;;;;;;4422676;32;20602;-89
2022/09/05 14:13:50;;;;;;;3.83;2.83;;;;;;;;;;4424303;32;20340;-93
2022/09/05 14:16:25;;;;;;;2.97;2.67;;;;;;;;;;4422193;32;20252;-93
2022/09/05 14:21:39;;;;;;;7.07;6.32;;;;;;;;;;4395245;32;20282;-90
2022/09/05 14:24:14;;;;;;;6.65;5.78;;;;;;;;;;4420511;32;20642;-89
2022/09/05 14:26:46;;;;;;;9.00;6.43;;;;;;;;;;4421070;32;20548;-93
2022/09/05 14:29:18;;;;;;;5.10;3.75;;;;;;;;;;4421886;32;20346;-93
2022/09/05 14:32:23;;;;;;;3.30;2.75;;;;;;;;;;4421073;32;20557;-91
2022/09/05 14:35:04;;;;;;;4.25;3.30;;;;;;;;;;4421219;32;20725;-93
2022/09/05 14:37:44;;;;;;;3.42;3.10;;;;;;;;;;4421810;32;20218;-89
2022/09/05 14:40:34;;;;;;;4.43;2.70;;;;;;;;;;4421270;32;20596;-91
2022/09/05 14:43:29;;;;;;;4.20;2.67;;;;;;;;;;4420598;32;20644;-87
2022/09/05 14:46:22;;;;;;;4.55;2.50;;;;;;;;;;4422759;32;20593;-87
2022/09/05 14:49:18;;;;;;;3.42;2.22;;;;;;;;;;4422358;32;20634;-85
2022/09/05 14:51:47;;;;;;;4.25;2.90;;;;;;;;;;4422193;32;20212;-86
2022/09/05 14:54:22;;;;;;;4.87;3.12;;;;;;;;;;4421905;32;20225;-85
2022/09/05 14:56:54;;;;;;;2.50;2.05;;;;;;;;;;4422737;32;20197;-86
2022/09/05 14:59:31;;;;;;;3.90;2.70;;;;;;;;;;4422379;32;20587;-83
2022/09/05 15:02:04;;;;;;;6.57;2.67;;;;;;;;;;4421903;32;20573;-84
2022/09/05 15:04:41;;;;;;;5.30;2.53;;;;;;;;;;4421255;32;20539;-83
2022/09/05 15:07:16;;;;;;;16.98;4.28;;;;;;;;;;4423243;32;20539;-82
2022/09/05 15:09:46;;;;;;;4.68;2.97;;;;;;;;;;4423960;32;20264;-83
2022/09/05 15:12:19;;;;;;;2.90;2.60;;;;;;;;;;4424326;32;20311;-83
2022/09/05 15:15:12;;;;;;;3.30;2.25;;;;;;;;;;4423441;32;20526;-84
2022/09/05 15:17:45;;;;;;;16.25;2.50;;;;;;;;;;4424147;32;20239;-84
2022/09/05 15:20:28;;;;;;;2.83;2.35;;;;;;;;;;4423806;32;20559;-84
2022/09/05 15:22:56;;;;;;;2.65;2.00;;;;;;;;;;4423521;32;20201;-85
2022/09/05 15:25:27;;;;;;;3.00;2.25;;;;;;;;;;4424030;32;20627;-85
2022/09/05 15:27:55;;;;;;;3.58;2.50;;;;;;;;;;4411328;32;20261;-86
2022/09/05 15:30:26;;;;;;;3.92;2.55;;;;;;;;;;4425432;32;20311;-85
2022/09/05 15:33:13;;;;;;;3.15;2.05;;;;;;;;;;4425052;32;20614;-84
2022/09/05 15:35:43;;;;;;;4.43;3.20;;;;;;;;;;4425063;32;20715;-86
2022/09/05 15:38:29;;;;;;;4.22;3.40;;;;;;;;;;4424215;32;20613;-85
2022/09/05 15:41:19;;;;;;;3.67;2.80;;;;;;;;;;4423863;32;20217;-85
2022/09/05 15:44:03;;;;;;;4.90;2.78;;;;;;;;;;4424884;32;20554;-85
2022/09/05 15:46:41;;;;;;;7.28;3.10;;;;;;;;;;4424573;32;20262;-87
2022/09/05 15:49:13;;;;;;;4.15;2.92;;;;;;;;;;4427976;32;20538;-86
2022/09/05 15:51:46;;;;;;;8.45;3.25;;;;;;;;;;4430313;32;20546;-85
2022/09/05 15:54:22;;;;;;;6.85;2.35;;;;;;;;;;4431415;32;20256;-85
2022/09/05 15:56:56;;;;;;;4.78;3.03;;;;;;;;;;4432678;32;20197;-84
2022/09/05 15:59:29;;;;;;;3.53;3.00;;;;;;;;;;4430979;32;20617;-83
2022/09/05 16:01:57;;;;;;;9.80;2.15;;;;;;;;;;4430729;32;20233;-86
2022/09/05 16:04:27;;;;;;;4.15;2.90;;;;;;;;;;4431289;32;20216;-86
2022/09/05 16:06:58;;;;;;;3.33;2.50;;;;;;;;;;4430807;32;20240;-87